ANA477 RJTT-ROAH
Flight info
| Callsign | ANA477 |
|---|---|
| Flight time | N/A |
| Altitude | 38000 |
| Route | LAXAS Y56 TOHME Y54 KOHWA Y12 AYANO Y128 LAXEL Y52 TONAR Y525 IHEYA |
| Aircraft | B77W/H-SDE1E2E3FGHIJ2J3J4J5M1RWXY/LB1D1 |
Departure
| Time | N/A |
|---|---|
| Airport | Tokyo Haneda International Airport (RJTT) |
Arrival
| Time | 2026-04-20 20:46 |
|---|---|
| Airport | Naha International Airport (ROAH) |
| Time | Latitude | Longitude | Altitude | Speed | Heading |
|---|---|---|---|---|---|
| 2026-04-20 20:39 | 26.23988 | 127.84297 | 8091 ft | 284 kts | 208° |
| 2026-04-20 20:40 | 26.22220 | 127.83395 | 7735 ft | 281 kts | 208° |
| 2026-04-20 20:40 | 26.20444 | 127.82489 | 7372 ft | 278 kts | 208° |
| 2026-04-20 20:40 | 26.18695 | 127.81598 | 7011 ft | 276 kts | 208° |
| 2026-04-20 20:40 | 26.16959 | 127.80714 | 6648 ft | 273 kts | 209° |
| 2026-04-20 20:41 | 26.15237 | 127.79836 | 6286 ft | 271 kts | 209° |
| 2026-04-20 20:41 | 26.13519 | 127.78961 | 5923 ft | 269 kts | 209° |
| 2026-04-20 20:41 | 26.11815 | 127.78094 | 5558 ft | 267 kts | 208° |
| 2026-04-20 20:41 | 26.10118 | 127.77229 | 5191 ft | 266 kts | 209° |
| 2026-04-20 20:42 | 26.08449 | 127.76380 | 4831 ft | 265 kts | 208° |
| 2026-04-20 20:42 | 26.06809 | 127.75466 | 4444 ft | 260 kts | 220° |
| 2026-04-20 20:42 | 26.05667 | 127.74024 | 4056 ft | 245 kts | 249° |
| 2026-04-20 20:42 | 26.05187 | 127.72232 | 3669 ft | 238 kts | 264° |
| 2026-04-20 20:43 | 26.04990 | 127.70430 | 3201 ft | 239 kts | 268° |
| 2026-04-20 20:43 | 26.04883 | 127.68577 | 2713 ft | 240 kts | 270° |
| 2026-04-20 20:43 | 26.04897 | 127.66724 | 2235 ft | 240 kts | 284° |
| 2026-04-20 20:43 | 26.05641 | 127.65127 | 1984 ft | 232 kts | 315° |
| 2026-04-20 20:44 | 26.06951 | 127.64191 | 1972 ft | 218 kts | 335° |
| 2026-04-20 20:44 | 26.08384 | 127.63741 | 1820 ft | 214 kts | 354° |
| 2026-04-20 20:44 | 26.09875 | 127.63718 | 1554 ft | 215 kts | 358° |
| 2026-04-20 20:44 | 26.11326 | 127.63674 | 1281 ft | 199 kts | 355° |
| 2026-04-20 20:45 | 26.12680 | 127.63598 | 1041 ft | 186 kts | 356° |
| 2026-04-20 20:45 | 26.13926 | 127.63543 | 803 ft | 173 kts | 356° |
| 2026-04-20 20:45 | 26.15070 | 127.63490 | 587 ft | 154 kts | 356° |
| 2026-04-20 20:45 | 26.16112 | 127.63443 | 359 ft | 144 kts | 356° |
| 2026-04-20 20:46 | 26.17122 | 127.63392 | 203 ft | 143 kts | 356° |
| 2026-04-20 20:46 | 26.18104 | 127.63345 | 27 ft | 140 kts | 356° |
| 2026-04-20 20:46 | 26.18969 | 127.63303 | 18 ft | 100 kts | 357° |
| 2026-04-20 20:46 | 26.19483 | 127.63277 | 18 ft | 45 kts | 359° |
| 2026-04-20 20:47 | 26.19648 | 127.63303 | 18 ft | 19 kts | 18° |
| 2026-04-20 20:47 | 26.19767 | 127.63357 | 18 ft | 17 kts | 27° |
| 2026-04-20 20:47 | 26.19874 | 127.63416 | 18 ft | 16 kts | 27° |
| 2026-04-20 20:47 | 26.19981 | 127.63448 | 18 ft | 15 kts | 359° |
| 2026-04-20 20:48 | 26.20085 | 127.63442 | 18 ft | 14 kts | 358° |
| 2026-04-20 20:48 | 26.20179 | 127.63440 | 18 ft | 10 kts | 4° |
| 2026-04-20 20:48 | 26.20215 | 127.63500 | 18 ft | 10 kts | 84° |
| 2026-04-20 20:48 | 26.20220 | 127.63579 | 19 ft | 9 kts | 87° |
| 2026-04-20 20:49 | 26.20223 | 127.63650 | 20 ft | 8 kts | 89° |
| 2026-04-20 20:49 | 26.20224 | 127.63728 | 21 ft | 11 kts | 89° |
| 2026-04-20 20:49 | 26.20227 | 127.63828 | 23 ft | 14 kts | 88° |
| 2026-04-20 20:49 | 26.20233 | 127.63950 | 25 ft | 16 kts | 86° |
| 2026-04-20 20:50 | 26.20238 | 127.64076 | 27 ft | 15 kts | 88° |
| 2026-04-20 20:50 | 26.20245 | 127.64242 | 30 ft | 13 kts | 88° |
| 2026-04-20 20:50 | 26.20288 | 127.64318 | 31 ft | 12 kts | 23° |
| 2026-04-20 20:50 | 26.20336 | 127.64384 | 31 ft | 11 kts | 86° |
| 2026-04-20 20:51 | 26.20339 | 127.64475 | 31 ft | 11 kts | 88° |
| 2026-04-20 20:51 | 26.20342 | 127.64568 | 31 ft | 11 kts | 88° |
| 2026-04-20 20:51 | 26.20362 | 127.64655 | 31 ft | 11 kts | 47° |
| 2026-04-20 20:51 | 26.20427 | 127.64697 | 32 ft | 10 kts | 27° |
| 2026-04-20 20:52 | 26.20490 | 127.64733 | 32 ft | 9 kts | 27° |
| 2026-04-20 20:52 | 26.20554 | 127.64747 | 33 ft | 9 kts | 360° |
| 2026-04-20 20:52 | 26.20615 | 127.64764 | 33 ft | 8 kts | 41° |
| 2026-04-20 20:52 | 26.20632 | 127.64820 | 34 ft | 7 kts | 85° |
| 2026-04-20 20:53 | 26.20636 | 127.64864 | 35 ft | 3 kts | 76° |
| 2026-04-20 20:53 | 26.20646 | 127.64883 | 36 ft | 3 kts | 50° |
| 2026-04-20 20:53 | 26.20669 | 127.64899 | 37 ft | 4 kts | 22° |
| 2026-04-20 20:53 | 26.20699 | 127.64914 | 37 ft | 4 kts | 26° |
| 2026-04-20 20:54 | 26.20708 | 127.64919 | 38 ft | 0 kts | 27° |